createdAt,value
2022-08-30T00:00:24.813Z,99688.69
2022-08-30T00:01:32.330Z,99686.14
2022-08-30T00:02:36.856Z,99688.28
2022-08-30T00:03:41.869Z,99689.59
2022-08-30T00:04:45.325Z,99687.76
2022-08-30T00:05:47.754Z,99691.30
2022-08-30T00:06:50.566Z,99687.60
2022-08-30T00:07:52.926Z,99687.45
2022-08-30T00:08:55.359Z,99689.16
2022-08-30T00:09:57.721Z,99694.41
2022-08-30T00:11:00.480Z,99687.14
2022-08-30T00:12:03.633Z,99687.14
2022-08-30T00:13:07.396Z,99694.25
2022-08-30T00:14:09.637Z,99680.48
2022-08-30T00:15:13.089Z,99680.48
2022-08-30T00:16:17.042Z,99692.70
2022-08-30T00:17:19.306Z,99692.70
2022-08-30T00:18:21.852Z,99691.86
2022-08-30T00:19:25.955Z,99687.45
2022-08-30T00:20:31.743Z,99680.33
2022-08-30T00:21:34.862Z,99687.45
2022-08-30T00:22:37.492Z,99682.35
2022-08-30T00:23:39.896Z,99683.19
2022-08-30T00:24:42.185Z,99682.35
2022-08-30T00:25:44.542Z,99690.47
2022-08-30T00:26:47.090Z,99686.05
2022-08-30T00:27:49.574Z,99683.34
2022-08-30T00:28:51.930Z,99686.17
2022-08-30T00:29:54.853Z,99687.05
2022-08-30T00:30:58.227Z,99685.21
2022-08-30T00:32:01.365Z,99677.22
2022-08-30T00:33:04.121Z,99681.92
2022-08-30T00:34:06.286Z,99683.06
2022-08-30T00:35:09.273Z,99677.66
2022-08-30T00:36:13.909Z,99686.77
2022-08-30T00:37:16.312Z,99686.77
2022-08-30T00:38:18.571Z,99687.79
2022-08-30T00:39:21.142Z,99682.38
2022-08-30T00:40:27.231Z,99687.79
2022-08-30T00:41:28.553Z,99677.81
2022-08-30T00:42:31.696Z,99694.88
2022-08-30T00:43:34.264Z,99686.92
2022-08-30T00:44:40.278Z,99689.77
2022-08-30T00:45:42.497Z,99688.09
2022-08-30T00:46:45.156Z,99686.92
2022-08-30T00:47:47.437Z,99686.92
2022-08-30T00:48:49.900Z,99679.68
2022-08-30T00:49:55.390Z,99679.52
2022-08-30T00:51:02.843Z,99685.61
2022-08-30T00:52:05.715Z,99686.33
2022-08-30T00:53:17.617Z,99683.63
2022-08-30T00:54:20.541Z,99688.16
2022-08-30T00:55:24.073Z,99692.73
2022-08-30T00:56:28.383Z,99687.48
2022-08-30T00:57:31.011Z,99686.77
2022-08-30T00:59:48.340Z,99686.92
2022-08-30T01:00:51.846Z,99695.95
2022-08-30T01:01:54.733Z,99692.23
2022-08-30T01:02:57.291Z,99695.64
2022-08-30T01:03:59.866Z,99688.37
2022-08-30T01:05:02.544Z,99692.23
2022-08-30T01:06:05.985Z,99696.95
2022-08-30T01:07:14.744Z,99695.95
2022-08-30T01:08:18.079Z,99690.39
2022-08-30T01:09:20.585Z,99697.63
2022-08-30T01:10:24.696Z,99693.94
2022-08-30T01:11:26.959Z,99693.94
2022-08-30T01:12:29.555Z,99695.08
2022-08-30T01:13:33.004Z,99700.48
2022-08-30T01:14:35.306Z,99706.77
2022-08-30T01:15:37.627Z,99702.05
2022-08-30T01:16:41.247Z,99698.34
2022-08-30T01:17:43.782Z,99698.34
2022-08-30T01:18:46.509Z,99699.34
2022-08-30T01:21:29.837Z,99707.39
2022-08-30T01:22:43.164Z,99702.05
2022-08-30T01:23:48.823Z,99702.05
2022-08-30T01:24:51.738Z,99695.95
2022-08-30T01:25:54.172Z,99700.80
2022-08-30T01:26:57.432Z,99699.24
2022-08-30T01:28:02.877Z,99703.09
2022-08-30T01:29:07.996Z,99700.54
2022-08-30T01:30:12.492Z,99694.30
2022-08-30T01:31:15.055Z,99695.44
2022-08-30T01:32:21.175Z,99692.73
2022-08-30T01:33:22.906Z,99691.75
2022-08-30T01:34:25.183Z,99699.70
2022-08-30T01:35:29.642Z,99697.99
2022-08-30T01:36:33.458Z,99692.05
2022-08-30T01:37:35.739Z,99697.58
2022-08-30T01:38:41.368Z,99699.44
2022-08-30T01:39:45.221Z,99694.75
2022-08-30T01:40:48.607Z,99697.45
2022-08-30T01:41:51.028Z,99688.48
2022-08-30T01:42:53.289Z,99703.70
2022-08-30T01:43:57.237Z,99692.05
2022-08-30T01:45:00.480Z,99686.77
2022-08-30T01:46:03.196Z,99689.63
2022-08-30T01:47:05.600Z,99689.63
2022-08-30T01:48:08.848Z,99694.50
2022-08-30T01:49:13.566Z,99691.69
2022-08-30T01:50:16.523Z,99691.69
2022-08-30T01:51:18.866Z,99695.07
2022-08-30T01:52:22.511Z,99694.08
2022-08-30T01:53:24.708Z,99697.50
2022-08-30T01:54:27.275Z,99690.08
2022-08-30T01:55:31.503Z,99690.54
2022-08-30T01:56:35.767Z,99693.52
2022-08-30T01:57:38.001Z,99692.83
2022-08-30T01:58:40.683Z,99692.83
2022-08-30T01:59:44.266Z,99693.52
2022-08-30T02:00:46.739Z,99685.29
2022-08-30T02:01:49.100Z,99691.53
2022-08-30T02:02:51.428Z,99693.24
2022-08-30T02:03:54.725Z,99686.70
2022-08-30T02:04:56.977Z,99690.08
2022-08-30T02:06:05.221Z,99694.50
2022-08-30T02:07:07.641Z,99690.08
2022-08-30T02:08:09.865Z,99701.73
2022-08-30T02:09:12.216Z,99697.20
2022-08-30T02:10:15.766Z,99697.88
2022-08-30T02:11:18.080Z,99696.05
2022-08-30T02:12:20.248Z,99688.94
2022-08-30T02:13:22.618Z,99693.50
2022-08-30T02:14:24.849Z,99697.88
2022-08-30T02:15:27.213Z,99693.35
2022-08-30T02:16:30.271Z,99702.30
2022-08-30T02:17:32.852Z,99698.45
2022-08-30T02:18:35.420Z,99705.69
2022-08-30T02:19:38.100Z,99694.88
2022-08-30T02:20:40.759Z,99697.58
2022-08-30T02:21:43.135Z,99698.91
2022-08-30T02:22:49.140Z,99702.19
2022-08-30T02:23:50.317Z,99710.90
2022-08-30T02:24:52.766Z,99712.46
2022-08-30T02:25:55.018Z,99711.05
2022-08-30T02:26:57.513Z,99701.24
2022-08-30T02:27:59.881Z,99703.06
2022-08-30T02:29:03.798Z,99702.95
2022-08-30T02:30:08.332Z,99701.81
2022-08-30T02:31:10.938Z,99700.81
2022-08-30T02:32:13.236Z,99701.66
2022-08-30T02:33:15.497Z,99706.38
2022-08-30T02:34:17.851Z,99710.78
2022-08-30T02:35:20.114Z,99698.27
2022-08-30T02:36:24.384Z,99703.52
2022-08-30T02:37:26.980Z,99708.77
2022-08-30T02:38:29.238Z,99713.88
2022-08-30T02:39:31.693Z,99705.92
2022-08-30T02:40:34.337Z,99719.27
2022-08-30T02:41:37.800Z,99704.93
2022-08-30T02:42:40.550Z,99702.95
2022-08-30T02:43:42.719Z,99708.08
2022-08-30T02:44:44.988Z,99718.73
2022-08-30T02:45:47.156Z,99708.62
2022-08-30T02:46:50.714Z,99721.28
2022-08-30T02:47:53.033Z,99707.78
2022-08-30T02:48:55.288Z,99708.62
2022-08-30T02:49:57.461Z,99713.03
2022-08-30T02:51:05.919Z,99720.83
2022-08-30T02:52:10.133Z,99723.38
2022-08-30T02:53:16.119Z,99720.83
2022-08-30T02:54:18.301Z,99724.55
2022-08-30T02:55:20.463Z,99735.36
2022-08-30T02:56:23.751Z,99730.80
2022-08-30T02:57:25.887Z,99728.94
2022-08-30T02:58:29.104Z,99728.55
2022-08-30T02:59:34.212Z,99735.09
2022-08-30T03:00:37.266Z,99729.14
2022-08-30T03:01:40.688Z,99723.77
2022-08-30T03:02:43.911Z,99721.23
2022-08-30T03:03:46.395Z,99726.78
2022-08-30T03:04:49.791Z,99735.84
2022-08-30T03:05:52.110Z,99734.42
2022-08-30T03:06:54.484Z,99733.69
2022-08-30T03:07:56.909Z,99736.66
2022-08-30T03:08:59.172Z,99742.19
2022-08-30T03:10:01.431Z,99745.45
2022-08-30T03:11:03.972Z,99736.15
2022-08-30T03:12:06.593Z,99737.00
2022-08-30T03:13:08.904Z,99737.74
2022-08-30T03:14:11.374Z,99737.74
2022-08-30T03:15:13.719Z,99745.46
2022-08-30T03:16:18.015Z,99732.69
2022-08-30T03:17:20.315Z,99736.22
2022-08-30T03:18:22.577Z,99741.88
2022-08-30T03:19:24.878Z,99736.41
2022-08-30T03:20:27.329Z,99740.92
2022-08-30T03:21:29.485Z,99740.92
2022-08-30T03:22:32.337Z,99736.98
2022-08-30T03:23:34.878Z,99742.83
2022-08-30T03:24:37.235Z,99746.29
2022-08-30T03:25:39.502Z,99737.80
2022-08-30T03:26:46.240Z,99739.05
2022-08-30T03:27:47.799Z,99752.30
2022-08-30T03:28:50.140Z,99746.86
2022-08-30T03:29:52.521Z,99752.52
2022-08-30T03:30:54.819Z,99750.47
2022-08-30T03:31:57.200Z,99747.20
2022-08-30T03:33:00.169Z,99744.95
2022-08-30T03:34:03.352Z,99746.73
2022-08-30T03:35:06.738Z,99748.95
2022-08-30T03:36:09.998Z,99749.92
2022-08-30T03:37:12.157Z,99750.27
2022-08-30T03:38:14.702Z,99754.06
2022-08-30T03:39:16.866Z,99751.71
2022-08-30T03:40:21.105Z,99753.36
2022-08-30T03:41:25.768Z,99748.52
2022-08-30T03:42:28.082Z,99757.22
2022-08-30T03:43:32.112Z,99751.67
2022-08-30T03:44:34.927Z,99756.23
2022-08-30T03:45:38.725Z,99756.28
2022-08-30T03:46:41.493Z,99754.75
2022-08-30T03:47:43.943Z,99760.31
2022-08-30T03:48:46.211Z,99757.37
2022-08-30T03:49:48.596Z,99757.80
2022-08-30T03:50:52.391Z,99764.63
2022-08-30T03:51:54.631Z,99765.22
2022-08-30T03:52:57.486Z,99768.47
2022-08-30T03:54:00.206Z,99761.81
2022-08-30T03:55:03.140Z,99768.14
2022-08-30T03:56:05.775Z,99768.14
2022-08-30T03:57:09.024Z,99766.88
2022-08-30T03:58:13.114Z,99771.84
2022-08-30T03:59:17.306Z,99768.72
2022-08-30T04:00:20.743Z,99765.48
2022-08-30T04:01:23.046Z,99770.31
2022-08-30T04:02:25.251Z,99770.05
2022-08-30T04:03:27.903Z,99767.91
2022-08-30T04:04:30.235Z,99769.19
2022-08-30T04:05:32.500Z,99772.33
2022-08-30T04:06:35.883Z,99776.59
2022-08-30T04:07:38.298Z,99778.42
2022-08-30T04:08:41.146Z,99768.65
2022-08-30T04:09:44.751Z,99774.74
2022-08-30T04:10:47.549Z,99783.27
2022-08-30T04:11:50.925Z,99772.05
2022-08-30T04:12:53.242Z,99781.59
2022-08-30T04:13:55.397Z,99797.64
2022-08-30T04:14:59.416Z,99784.88
2022-08-30T04:16:02.173Z,99782.73
2022-08-30T04:17:04.625Z,99781.60
2022-08-30T04:18:07.362Z,99784.01
2022-08-30T04:19:09.678Z,99782.03
2022-08-30T04:20:13.241Z,99793.53
2022-08-30T04:21:15.549Z,99791.55
2022-08-30T04:22:17.929Z,99800.20
2022-08-30T04:23:20.265Z,99799.94
2022-08-30T04:24:22.706Z,99792.68
2022-08-30T04:25:24.873Z,99797.35
2022-08-30T04:26:29.269Z,99801.08
2022-08-30T04:27:31.482Z,99809.17
2022-08-30T04:28:34.645Z,99803.77
2022-08-30T04:29:37.037Z,99815.27
2022-08-30T04:30:41.900Z,99810.59
2022-08-30T04:31:45.884Z,99810.30
2022-08-30T04:32:48.601Z,99801.91
2022-08-30T04:33:50.885Z,99804.17
2022-08-30T04:34:57.212Z,99804.17
2022-08-30T04:36:01.128Z,99811.13
2022-08-30T04:37:04.416Z,99802.05
2022-08-30T04:38:06.613Z,99820.95
2022-08-30T04:39:08.857Z,99814.27
2022-08-30T04:40:11.864Z,99807.31
2022-08-30T04:41:18.666Z,99801.91
2022-08-30T04:42:20.891Z,99807.45
2022-08-30T04:43:23.261Z,99804.17
2022-08-30T04:44:25.391Z,99808.30
2022-08-30T04:45:27.810Z,99805.20
2022-08-30T04:46:30.647Z,99807.45
2022-08-30T04:47:33.853Z,99808.03
2022-08-30T04:49:49.571Z,99810.73
2022-08-30T04:50:51.859Z,99822.08
2022-08-30T04:51:54.102Z,99818.95
2022-08-30T04:52:56.990Z,99813.44
2022-08-30T04:53:59.364Z,99826.06
2022-08-30T04:55:01.730Z,99814.13
2022-08-30T04:57:22.181Z,99820.52
2022-08-30T04:58:24.615Z,99818.40
2022-08-30T04:59:27.140Z,99822.67
2022-08-30T05:00:30.781Z,99832.59
2022-08-30T05:01:44.754Z,99821.80
2022-08-30T05:02:38.842Z,99826.35
2022-08-30T05:03:42.044Z,99826.35
2022-08-30T05:04:44.373Z,99828.76
2022-08-30T05:05:49.320Z,99814.12
2022-08-30T05:06:51.627Z,99826.34
2022-08-30T05:07:54.092Z,99827.08
2022-08-30T05:08:57.336Z,99820.66
2022-08-30T05:10:00.003Z,99825.36
2022-08-30T05:11:03.680Z,99825.91
2022-08-30T05:12:06.797Z,99817.27
2022-08-30T05:13:09.380Z,99831.90
2022-08-30T05:14:11.658Z,99826.64
2022-08-30T05:15:14.046Z,99825.66
2022-08-30T05:16:18.243Z,99819.09
2022-08-30T05:17:21.335Z,99820.11
2022-08-30T05:18:24.835Z,99820.11
2022-08-30T05:19:27.569Z,99818.40
2022-08-30T05:20:29.966Z,99817.67
2022-08-30T05:21:32.701Z,99822.09
2022-08-30T05:23:49.734Z,99820.95
2022-08-30T05:24:51.973Z,99814.28
2022-08-30T05:25:54.132Z,99817.81
2022-08-30T05:26:56.525Z,99811.28
2022-08-30T05:27:58.859Z,99808.44
2022-08-30T05:29:02.280Z,99812.86
2022-08-30T05:30:05.675Z,99818.40
2022-08-30T05:31:26.203Z,99822.81
2022-08-30T05:32:29.139Z,99824.38
2022-08-30T05:33:32.332Z,99814.27
2022-08-30T05:34:36.412Z,99828.76
2022-08-30T05:35:38.585Z,99816.39
2022-08-30T05:36:42.161Z,99821.09
2022-08-30T05:37:44.631Z,99821.80
2022-08-30T05:38:47.901Z,99806.32
2022-08-30T05:39:51.142Z,99815.11
2022-08-30T05:40:54.740Z,99815.27
2022-08-30T05:43:10.735Z,99810.28
2022-08-30T05:44:12.990Z,99820.11
2022-08-30T05:45:16.200Z,99819.81
2022-08-30T05:46:20.135Z,99820.39
2022-08-30T05:47:23.630Z,99812.00
2022-08-30T05:48:26.988Z,99809.30
2022-08-30T05:49:29.213Z,99823.09
2022-08-30T05:50:34.097Z,99813.69
2022-08-30T05:51:37.006Z,99817.67
2022-08-30T05:52:41.605Z,99818.39
2022-08-30T05:53:44.322Z,99810.98
2022-08-30T05:54:52.305Z,99830.91
2022-08-30T05:55:55.061Z,99819.38
2022-08-30T05:56:57.658Z,99821.09
2022-08-30T05:57:59.885Z,99822.66
2022-08-30T05:59:04.847Z,99817.95
2022-08-30T06:00:10.775Z,99825.22
2022-08-30T06:01:28.968Z,99821.67
2022-08-30T06:02:31.488Z,99815.98
2022-08-30T06:03:33.741Z,99818.53
2022-08-30T06:04:35.944Z,99815.69
2022-08-30T06:05:38.270Z,99815.69
2022-08-30T06:06:42.268Z,99812.14
2022-08-30T06:07:44.637Z,99810.28
2022-08-30T06:08:47.358Z,99815.69
2022-08-30T06:09:49.818Z,99812.84
2022-08-30T06:10:52.487Z,99812.55
2022-08-30T06:11:55.628Z,99812.55
2022-08-30T06:12:59.291Z,99823.78
2022-08-30T06:14:02.000Z,99814.84
2022-08-30T06:15:05.472Z,99818.53
2022-08-30T06:16:10.910Z,99815.83
2022-08-30T06:17:13.391Z,99809.30
2022-08-30T06:18:15.792Z,99804.59
2022-08-30T06:19:19.002Z,99806.00
2022-08-30T06:20:24.133Z,99805.02
2022-08-30T06:21:29.289Z,99807.72
2022-08-30T06:22:32.641Z,99802.31
2022-08-30T06:23:35.507Z,99809.69
2022-08-30T06:24:56.265Z,99801.19
2022-08-30T06:25:44.032Z,99798.79
2022-08-30T06:26:47.721Z,99804.59
2022-08-30T06:27:55.902Z,99803.47
2022-08-30T06:28:56.757Z,99803.05
2022-08-30T06:29:59.672Z,99802.34
2022-08-30T06:31:08.224Z,99797.94
2022-08-30T06:32:10.668Z,99802.64
2022-08-30T06:33:13.981Z,99805.20
2022-08-30T06:34:16.838Z,99803.91
2022-08-30T06:35:19.100Z,99806.17
2022-08-30T06:36:22.913Z,99813.83
2022-08-30T06:37:29.967Z,99816.39
2022-08-30T06:38:30.402Z,99813.83
2022-08-30T06:39:32.598Z,99808.73
2022-08-30T06:40:35.885Z,99821.53
2022-08-30T06:41:39.391Z,99813.58
2022-08-30T06:42:43.576Z,99815.11
2022-08-30T06:43:49.070Z,99809.45
2022-08-30T06:44:51.476Z,99809.30
2022-08-30T06:45:54.155Z,99819.38
2022-08-30T06:46:57.754Z,99814.42
2022-08-30T06:48:01.070Z,99818.83
2022-08-30T06:49:04.086Z,99813.44
2022-08-30T06:50:07.751Z,99831.75
2022-08-30T06:51:14.008Z,99825.77
2022-08-30T06:52:17.938Z,99831.46
2022-08-30T06:53:22.375Z,99817.27
2022-08-30T06:54:25.003Z,99827.92
2022-08-30T06:55:27.714Z,99827.92
2022-08-30T06:56:31.357Z,99823.07
2022-08-30T06:57:33.703Z,99826.64
2022-08-30T06:58:36.880Z,99827.48
2022-08-30T06:59:39.496Z,99825.66
2022-08-30T07:00:44.158Z,99821.66
2022-08-30T07:01:47.418Z,99823.51
2022-08-30T07:02:49.793Z,99825.37
2022-08-30T07:03:52.351Z,99816.25
2022-08-30T07:04:55.008Z,99825.77
2022-08-30T07:05:58.546Z,99825.08
2022-08-30T07:07:01.374Z,99819.67
2022-08-30T07:08:03.538Z,99817.81
2022-08-30T07:09:06.854Z,99818.95
2022-08-30T07:10:10.380Z,99823.51
2022-08-30T07:11:12.701Z,99834.30
2022-08-30T07:12:14.952Z,99822.38
2022-08-30T07:13:18.246Z,99827.48
2022-08-30T07:14:20.761Z,99823.80
2022-08-30T07:15:24.757Z,99820.95
2022-08-30T07:16:28.051Z,99834.16
2022-08-30T07:17:34.013Z,99819.67
2022-08-30T07:18:35.276Z,99824.38
2022-08-30T07:19:37.590Z,99820.11
2022-08-30T07:20:40.866Z,99827.34
2022-08-30T07:21:43.492Z,99826.50
2022-08-30T07:22:47.728Z,99822.67
2022-08-30T07:23:53.279Z,99822.52
2022-08-30T07:24:54.944Z,99820.95
2022-08-30T07:25:57.376Z,99834.59
2022-08-30T07:26:59.749Z,99822.67
2022-08-30T07:28:02.637Z,99824.23
2022-08-30T07:29:04.980Z,99823.22
2022-08-30T07:30:08.645Z,99817.96
2022-08-30T07:31:12.776Z,99820.95
2022-08-30T07:32:15.273Z,99822.81
2022-08-30T07:33:17.533Z,99824.38
2022-08-30T07:34:21.463Z,99821.53
2022-08-30T07:35:24.295Z,99829.78
2022-08-30T07:36:27.013Z,99825.36
2022-08-30T07:37:30.217Z,99826.20
2022-08-30T07:38:32.603Z,99815.41
2022-08-30T07:39:39.751Z,99830.04
2022-08-30T07:40:40.467Z,99824.23
2022-08-30T07:41:43.926Z,99821.94
2022-08-30T07:42:50.249Z,99821.25
2022-08-30T07:43:52.837Z,99820.38
2022-08-30T07:44:56.877Z,99823.95
2022-08-30T07:47:18.157Z,99828.62
2022-08-30T07:48:21.714Z,99826.20
2022-08-30T07:49:24.632Z,99826.94
2022-08-30T07:50:27.740Z,99825.77
2022-08-30T07:51:31.090Z,99831.31
2022-08-30T07:52:34.263Z,99836.02
2022-08-30T07:53:36.782Z,99832.73
2022-08-30T07:54:39.860Z,99827.34
2022-08-30T07:55:43.001Z,99821.94
2022-08-30T07:56:45.477Z,99829.75
2022-08-30T07:57:48.093Z,99828.91
2022-08-30T07:58:51.585Z,99829.89
2022-08-30T07:59:53.997Z,99829.89
2022-08-30T08:00:57.141Z,99827.19
2022-08-30T08:02:01.231Z,99829.05
2022-08-30T08:03:08.417Z,99828.32
2022-08-30T08:04:10.770Z,99826.64
2022-08-30T08:05:17.609Z,99819.67
2022-08-30T08:06:20.279Z,99821.53
2022-08-30T08:07:22.599Z,99837.73
2022-08-30T08:08:25.078Z,99834.88
2022-08-30T08:09:30.110Z,99824.64
2022-08-30T08:10:35.902Z,99830.03
2022-08-30T08:11:39.129Z,99832.03
2022-08-30T08:12:41.311Z,99823.07
2022-08-30T08:13:48.996Z,99817.67
2022-08-30T08:14:50.873Z,99824.78
2022-08-30T08:15:54.612Z,99819.24
2022-08-30T08:16:57.072Z,99820.11
2022-08-30T08:18:00.011Z,99827.34
2022-08-30T08:19:03.723Z,99828.06
2022-08-30T08:20:07.292Z,99821.39
2022-08-30T08:21:09.798Z,99825.37
2022-08-30T08:22:27.282Z,99830.19
2022-08-30T08:23:16.242Z,99824.49
2022-08-30T08:24:19.456Z,99823.22
2022-08-30T08:25:21.874Z,99819.38
2022-08-30T08:26:24.496Z,99833.46
2022-08-30T08:27:26.947Z,99819.95
2022-08-30T08:28:31.488Z,99824.38
2022-08-30T08:29:33.873Z,99824.48
2022-08-30T08:30:38.271Z,99832.59
2022-08-30T08:31:40.674Z,99827.77
2022-08-30T08:32:43.579Z,99822.22
2022-08-30T08:33:46.127Z,99824.08
2022-08-30T08:34:48.409Z,99830.32
2022-08-30T08:35:51.119Z,99826.05
2022-08-30T08:36:54.492Z,99828.06
2022-08-30T08:37:57.175Z,99822.52
2022-08-30T08:38:59.973Z,99821.53
2022-08-30T08:40:03.507Z,99825.06
2022-08-30T08:41:26.679Z,99820.66
2022-08-30T08:42:47.831Z,99818.83
2022-08-30T08:43:50.123Z,99819.38
2022-08-30T08:45:11.249Z,99824.63
2022-08-30T08:46:26.674Z,99818.38
2022-08-30T08:48:07.432Z,99820.09
2022-08-30T08:49:09.826Z,99819.52
2022-08-30T08:50:17.452Z,99827.91
2022-08-30T08:51:23.847Z,99819.09
2022-08-30T08:52:33.256Z,99852.51
2022-08-30T08:53:45.514Z,99840.83
2022-08-30T08:56:05.211Z,99830.90
2022-08-30T08:57:10.293Z,99832.59
2022-08-30T08:58:16.703Z,99828.90
2022-08-30T08:59:19.629Z,99817.11
2022-08-30T09:00:23.029Z,99818.97
2022-08-30T09:01:29.422Z,99817.80
2022-08-30T09:03:52.940Z,99815.67
2022-08-30T09:04:57.624Z,99814.84
2022-08-30T09:06:01.878Z,99808.42
2022-08-30T09:07:07.100Z,99820.09
2022-08-30T09:08:11.978Z,99807.44
2022-08-30T09:09:18.008Z,99818.38
2022-08-30T09:10:40.483Z,99811.27
2022-08-30T09:11:28.291Z,99813.28
2022-08-30T09:12:30.810Z,99808.02
2022-08-30T09:13:34.139Z,99810.14
2022-08-30T09:14:44.277Z,99812.70
2022-08-30T09:15:44.011Z,99830.61
2022-08-30T09:17:02.948Z,99816.97
2022-08-30T09:18:06.795Z,99817.55
2022-08-30T09:19:12.124Z,99811.84
2022-08-30T09:20:36.540Z,99818.81
2022-08-30T09:21:38.998Z,99820.49
2022-08-30T09:22:41.292Z,99821.22
2022-08-30T09:25:07.626Z,99801.04
2022-08-30T09:26:12.032Z,99805.59
2022-08-30T09:27:23.835Z,99822.64
2022-08-30T09:28:29.348Z,99815.41
2022-08-30T09:29:31.655Z,99811.56
2022-08-30T09:30:34.766Z,99825.08
2022-08-30T09:31:52.953Z,99821.38
2022-08-30T09:32:57.719Z,99814.12
2022-08-30T09:34:01.541Z,99813.97
2022-08-30T09:35:15.394Z,99822.95
2022-08-30T09:36:27.679Z,99822.08
2022-08-30T09:37:36.644Z,99813.13
2022-08-30T09:38:39.035Z,99821.38
2022-08-30T09:39:41.819Z,99817.95
2022-08-30T09:40:46.527Z,99815.26
2022-08-30T09:41:49.428Z,99816.13
2022-08-30T09:43:03.938Z,99826.06
2022-08-30T09:44:19.391Z,99812.55
2022-08-30T09:45:26.579Z,99828.91
2022-08-30T09:46:30.660Z,99816.39
2022-08-30T09:47:33.449Z,99824.61
2022-08-30T09:48:38.962Z,99813.95
2022-08-30T09:49:42.450Z,99816.95
2022-08-30T09:50:45.441Z,99822.20
2022-08-30T09:51:54.320Z,99838.41
2022-08-30T09:53:05.188Z,99829.47
2022-08-30T09:54:26.072Z,99853.78
2022-08-30T09:55:51.623Z,99815.09
2022-08-30T09:57:16.975Z,99814.83
2022-08-30T09:58:29.951Z,99822.93
2022-08-30T10:01:23.931Z,99815.69
2022-08-30T10:02:39.883Z,99812.27
2022-08-30T10:03:54.953Z,99811.41
2022-08-30T10:05:19.059Z,99812.27
2022-08-30T10:07:47.880Z,99822.95
2022-08-30T10:09:04.758Z,99815.09
2022-08-30T10:10:17.051Z,99829.88
2022-08-30T10:11:38.414Z,99807.73
2022-08-30T10:15:46.688Z,99815.83
2022-08-30T10:16:59.639Z,99819.67
2022-08-30T10:18:29.085Z,99823.50
2022-08-30T10:21:15.639Z,99832.59
2022-08-30T10:23:38.393Z,99817.55
2022-08-30T10:24:46.308Z,99825.66
2022-08-30T10:25:54.786Z,99812.27
2022-08-30T10:27:05.257Z,99819.53
2022-08-30T10:28:17.867Z,99804.17
2022-08-30T10:29:25.020Z,99820.38
2022-08-30T10:30:45.472Z,99819.53
2022-08-30T10:31:57.505Z,99805.05
2022-08-30T10:34:44.900Z,99812.16
2022-08-30T10:35:58.699Z,99811.28
2022-08-30T10:38:19.525Z,99812.16
2022-08-30T10:39:24.123Z,99817.41
2022-08-30T10:40:30.284Z,99809.46
2022-08-30T10:41:42.512Z,99812.16
2022-08-30T10:42:44.825Z,99813.84
2022-08-30T10:44:23.479Z,99807.60
2022-08-30T10:45:32.521Z,99812.86
2022-08-30T10:46:50.001Z,99800.20
2022-08-30T10:47:56.272Z,99810.01
2022-08-30T10:50:24.708Z,99800.91
2022-08-30T10:51:53.237Z,99806.47
2022-08-30T10:53:35.499Z,99798.52
2022-08-30T10:54:43.566Z,99806.61
2022-08-30T10:55:55.699Z,99806.61
2022-08-30T10:57:00.116Z,99806.61
2022-08-30T10:58:04.130Z,99802.34
2022-08-30T10:59:07.466Z,99794.25
2022-08-30T11:01:49.987Z,99802.19
2022-08-30T11:03:15.874Z,99795.81
2022-08-30T11:04:32.264Z,99810.01
2022-08-30T11:06:05.541Z,99805.48
2022-08-30T11:07:29.831Z,99802.78
2022-08-30T11:08:54.359Z,99822.52
2022-08-30T11:10:24.129Z,99806.32
2022-08-30T11:11:34.571Z,99803.63
2022-08-30T11:12:57.000Z,99798.22
2022-08-30T11:14:05.423Z,99808.18
2022-08-30T11:15:22.960Z,99797.38
2022-08-30T11:16:44.224Z,99783.88
2022-08-30T11:17:59.437Z,99791.98
2022-08-30T11:19:02.043Z,99800.08
2022-08-30T11:20:05.633Z,99794.68
2022-08-30T11:21:32.272Z,99790.96
2022-08-30T11:22:39.077Z,99787.27
2022-08-30T11:23:40.737Z,99788.11
2022-08-30T11:25:09.778Z,99783.59
2022-08-30T11:26:12.150Z,99772.94
2022-08-30T11:27:34.144Z,99782.56
2022-08-30T11:28:40.521Z,99781.73
2022-08-30T11:29:44.319Z,99777.17
2022-08-30T11:30:48.281Z,99782.56
2022-08-30T11:31:51.117Z,99798.66
2022-08-30T11:33:09.697Z,99786.83
2022-08-30T11:34:12.238Z,99793.95
2022-08-30T11:35:18.266Z,99783.14
2022-08-30T11:36:37.313Z,99777.59
2022-08-30T11:37:38.425Z,99773.06
2022-08-30T11:38:44.588Z,99785.40
2022-08-30T11:39:50.646Z,99778.17
2022-08-30T11:40:59.867Z,99785.28
2022-08-30T11:42:30.205Z,99786.97
2022-08-30T11:43:39.484Z,99786.13
2022-08-30T11:44:42.518Z,99785.14
2022-08-30T11:45:46.085Z,99776.02
2022-08-30T11:46:53.517Z,99785.98
2022-08-30T11:47:59.732Z,99783.12
2022-08-30T11:49:16.324Z,99794.77
2022-08-30T11:50:25.203Z,99789.38
2022-08-30T11:51:43.748Z,99776.02
2022-08-30T11:52:52.258Z,99782.28
2022-08-30T11:55:19.907Z,99776.72
2022-08-30T11:56:29.471Z,99782.28
2022-08-30T11:57:39.337Z,99778.56
2022-08-30T11:58:48.299Z,99779.44
2022-08-30T12:00:03.617Z,99780.43
2022-08-30T12:01:50.383Z,99771.48
2022-08-30T12:02:55.606Z,99775.86
2022-08-30T12:04:15.223Z,99783.85
2022-08-30T12:06:59.415Z,99765.80
2022-08-30T12:08:02.786Z,99773.16
2022-08-30T12:09:08.394Z,99773.16
2022-08-30T12:10:14.676Z,99783.12
2022-08-30T12:11:20.706Z,99765.94
2022-08-30T12:12:39.657Z,99769.48
2022-08-30T12:13:46.926Z,99774.88
2022-08-30T12:14:53.890Z,99761.23
2022-08-30T12:15:58.093Z,99764.80
2022-08-30T12:17:01.718Z,99776.44
2022-08-30T12:18:04.605Z,99758.38
2022-08-30T12:19:18.337Z,99770.89
2022-08-30T12:20:26.986Z,99769.06
2022-08-30T12:21:43.975Z,99761.80
2022-08-30T12:22:39.346Z,99765.34
2022-08-30T12:23:54.030Z,99769.75
2022-08-30T12:24:56.972Z,99764.35
2022-08-30T12:26:15.925Z,99758.80
2022-08-30T12:27:32.885Z,99755.98
2022-08-30T12:28:34.603Z,99760.52
2022-08-30T12:29:36.956Z,99764.95
2022-08-30T12:30:40.574Z,99777.44
2022-08-30T12:31:58.580Z,99777.44
2022-08-30T12:33:02.397Z,99762.11
2022-08-30T12:34:06.284Z,99761.95
2022-08-30T12:35:12.952Z,99762.11
2022-08-30T12:36:36.330Z,99754.00
2022-08-30T12:37:38.847Z,99754.98
2022-08-30T12:38:43.157Z,99740.34
2022-08-30T12:39:45.837Z,99740.34
2022-08-30T12:40:55.256Z,99754.69
2022-08-30T12:42:20.275Z,99749.14
2022-08-30T12:43:26.751Z,99757.24
2022-08-30T12:44:32.077Z,99758.11
2022-08-30T12:45:42.085Z,99756.25
2022-08-30T12:46:47.237Z,99756.10
2022-08-30T12:47:58.680Z,99752.56
2022-08-30T12:49:01.046Z,99771.32
2022-08-30T12:50:07.214Z,99756.97
2022-08-30T12:51:26.941Z,99765.08
2022-08-30T12:52:35.297Z,99759.67
2022-08-30T12:53:40.073Z,99749.86
2022-08-30T12:54:43.366Z,99742.44
2022-08-30T12:56:01.194Z,99751.57
2022-08-30T12:57:34.936Z,99732.78
2022-08-30T12:58:10.076Z,99741.61
2022-08-30T12:59:33.491Z,99734.49
2022-08-30T13:00:38.572Z,99751.42
2022-08-30T13:01:40.891Z,99742.44
2022-08-30T13:02:46.823Z,99747.01
2022-08-30T13:03:59.941Z,99753.25
2022-08-30T13:05:06.050Z,99767.78
2022-08-30T13:06:08.868Z,99755.27
2022-08-30T13:07:11.409Z,99752.56
2022-08-30T13:08:22.407Z,99767.78
2022-08-30T13:09:28.661Z,99745.30
2022-08-30T13:10:34.405Z,99749.70
2022-08-30T13:11:37.894Z,99751.57
2022-08-30T13:12:40.187Z,99752.27
2022-08-30T13:15:19.095Z,99747.66
2022-08-30T13:16:26.165Z,99736.05
2022-08-30T13:17:28.898Z,99742.14
2022-08-30T13:18:32.257Z,99730.34
2022-08-30T13:19:40.737Z,99735.75
2022-08-30T13:20:43.441Z,99739.33